createdAt,value
2018-06-11T00:01:53.823Z,24.14
2018-06-11T00:04:26.959Z,24.20
2018-06-11T00:07:00.075Z,24.16
2018-06-11T00:09:33.246Z,24.16
2018-06-11T00:12:07.272Z,24.14
2018-06-11T00:14:33.914Z,24.11
2018-06-11T00:17:07.696Z,24.17
2018-06-11T00:19:41.036Z,24.11
2018-06-11T00:22:15.300Z,24.15
2018-06-11T00:24:49.494Z,24.15
2018-06-11T00:27:16.144Z,24.10
2018-06-11T00:29:50.021Z,24.10
2018-06-11T00:32:16.665Z,24.15
2018-06-11T00:34:50.689Z,24.12
2018-06-11T00:37:17.371Z,24.09
2018-06-11T00:39:50.663Z,24.09
2018-06-11T00:42:24.588Z,24.09
2018-06-11T00:44:51.233Z,24.12
2018-06-11T00:47:24.296Z,24.10
2018-06-11T00:49:50.992Z,24.10
2018-06-11T00:52:17.643Z,24.02
2018-06-11T00:54:50.850Z,24.04
2018-06-11T00:57:23.864Z,24.02
2018-06-11T00:59:50.549Z,24.03
2018-06-11T01:02:17.170Z,24.05
2018-06-11T01:04:43.868Z,24.02
2018-06-11T01:07:10.521Z,24.04
2018-06-11T01:09:37.200Z,24.00
2018-06-11T01:12:03.812Z,24.04
2018-06-11T01:14:30.611Z,24.05
2018-06-11T01:16:57.256Z,24.00
2018-06-11T01:19:23.870Z,23.95
2018-06-11T01:21:50.532Z,23.95
2018-06-11T01:24:17.239Z,23.97
2018-06-11T01:26:43.918Z,23.98
2018-06-11T01:29:10.527Z,23.92
2018-06-11T01:31:37.205Z,23.96
2018-06-11T01:34:03.856Z,23.95
2018-06-11T01:36:30.507Z,23.94
2018-06-11T01:38:59.555Z,23.90
2018-06-11T01:41:26.221Z,23.92
2018-06-11T01:43:52.899Z,23.93
2018-06-11T01:46:26.239Z,23.94
2018-06-11T01:48:59.007Z,23.91
2018-06-11T01:51:25.660Z,23.92
2018-06-11T01:53:59.474Z,23.89
2018-06-11T01:56:32.764Z,23.89
2018-06-11T01:58:59.441Z,23.89
2018-06-11T02:01:33.475Z,23.92
2018-06-11T02:04:00.124Z,23.93
2018-06-11T02:06:33.641Z,23.91
2018-06-11T02:09:07.603Z,23.88
2018-06-11T02:11:34.260Z,23.87
2018-06-11T02:14:07.527Z,23.84
2018-06-11T02:16:34.183Z,23.83
2018-06-11T02:19:08.081Z,23.84
2018-06-11T02:21:34.688Z,23.84
2018-06-11T02:24:08.812Z,23.82
2018-06-11T02:26:35.467Z,23.84
2018-06-11T02:29:09.270Z,23.82
2018-06-11T02:31:35.957Z,23.78
2018-06-11T02:34:09.443Z,23.80
2018-06-11T02:36:43.357Z,23.84
2018-06-11T02:39:17.636Z,23.81
2018-06-11T02:41:44.334Z,23.84
2018-06-11T02:44:17.509Z,23.78
2018-06-11T02:46:44.165Z,23.81
2018-06-11T02:49:17.877Z,23.78
2018-06-11T02:51:50.896Z,23.76
2018-06-11T02:54:17.548Z,23.74
2018-06-11T02:56:50.649Z,23.73
2018-06-11T02:59:23.824Z,23.75
2018-06-11T03:01:57.071Z,23.77
2018-06-11T03:04:30.648Z,23.74
2018-06-11T03:06:57.300Z,23.72
2018-06-11T03:09:30.510Z,23.73
2018-06-11T03:11:57.164Z,23.74
2018-06-11T03:14:30.937Z,23.87
2018-06-11T03:16:57.586Z,23.82
2018-06-11T03:19:31.640Z,23.74
2018-06-11T03:21:58.326Z,23.66
2018-06-11T03:24:25.028Z,23.70
2018-06-11T03:26:51.736Z,23.66
2018-06-11T03:29:18.423Z,23.63
2018-06-11T03:31:45.077Z,23.70
2018-06-11T03:34:11.821Z,23.72
2018-06-11T03:36:38.468Z,23.76
2018-06-11T03:39:05.132Z,23.76
2018-06-11T03:41:31.772Z,23.76
2018-06-11T03:43:58.440Z,23.71
2018-06-11T03:46:25.111Z,23.77
2018-06-11T03:48:51.790Z,23.83
2018-06-11T03:51:18.501Z,23.81
2018-06-11T03:53:45.129Z,23.85
2018-06-11T03:56:11.825Z,23.91
2018-06-11T03:58:38.450Z,23.94
2018-06-11T04:01:05.111Z,23.97
2018-06-11T04:03:31.809Z,23.95
2018-06-11T04:05:58.439Z,23.91
2018-06-11T04:08:25.115Z,23.97
2018-06-11T04:10:51.863Z,23.98
2018-06-11T04:13:18.492Z,24.12
2018-06-11T04:15:45.103Z,24.19
2018-06-11T04:18:11.771Z,24.21
2018-06-11T04:20:38.416Z,24.29
2018-06-11T04:23:05.136Z,24.10
2018-06-11T04:25:31.790Z,23.98
2018-06-11T04:27:58.455Z,23.91
2018-06-11T04:30:25.117Z,23.86
2018-06-11T04:32:51.761Z,23.86
2018-06-11T04:35:18.474Z,23.92
2018-06-11T04:37:45.113Z,23.88
2018-06-11T04:40:11.780Z,23.96
2018-06-11T04:42:38.471Z,23.90
2018-06-11T04:45:05.110Z,23.90
2018-06-11T04:47:31.795Z,23.81
2018-06-11T04:49:58.499Z,23.82
2018-06-11T04:52:25.152Z,23.70
2018-06-11T04:54:51.835Z,23.73
2018-06-11T04:57:18.494Z,23.83
2018-06-11T04:59:45.157Z,24.00
2018-06-11T05:02:11.797Z,24.09
2018-06-11T05:04:38.443Z,24.17
2018-06-11T05:07:05.099Z,24.20
2018-06-11T05:09:31.747Z,24.25
2018-06-11T05:11:58.411Z,24.34
2018-06-11T05:14:25.072Z,24.38
2018-06-11T05:16:51.729Z,24.44
2018-06-11T05:19:18.414Z,24.50
2018-06-11T05:21:45.053Z,24.51
2018-06-11T05:24:11.739Z,24.52
2018-06-11T05:26:38.420Z,24.63
2018-06-11T05:29:05.107Z,24.65
2018-06-11T05:31:31.779Z,24.78
2018-06-11T05:33:58.438Z,24.85
2018-06-11T05:36:25.123Z,24.81
2018-06-11T05:38:51.755Z,24.95
2018-06-11T05:41:18.411Z,24.97
2018-06-11T05:43:45.063Z,24.90
2018-06-11T05:46:11.727Z,25.00
2018-06-11T05:48:38.397Z,25.04
2018-06-11T05:51:05.062Z,25.02
2018-06-11T05:53:31.739Z,25.15
2018-06-11T05:55:58.360Z,25.21
2018-06-11T05:58:25.011Z,25.26
2018-06-11T06:00:51.695Z,25.33
2018-06-11T06:03:18.373Z,25.23
2018-06-11T06:05:45.059Z,25.31
2018-06-11T06:08:11.692Z,25.33
2018-06-11T06:10:38.397Z,25.24
2018-06-11T06:13:05.039Z,25.17
2018-06-11T06:15:31.697Z,25.08
2018-06-11T06:17:58.348Z,25.08
2018-06-11T06:20:25.007Z,25.07
2018-06-11T06:22:51.688Z,25.05
2018-06-11T06:25:18.338Z,25.03
2018-06-11T06:27:46.065Z,25.02
2018-06-11T06:30:12.737Z,25.11
2018-06-11T06:32:39.403Z,25.13
2018-06-11T06:35:06.027Z,25.05
2018-06-11T06:37:32.726Z,25.07
2018-06-11T06:39:59.403Z,25.06
2018-06-11T06:42:26.048Z,25.10
2018-06-11T06:44:54.001Z,25.07
2018-06-11T06:47:19.444Z,25.10
2018-06-11T06:49:46.135Z,25.16
2018-06-11T06:52:12.827Z,25.25
2018-06-11T06:54:39.485Z,25.22
2018-06-11T06:57:06.150Z,25.22
2018-06-11T06:59:32.806Z,25.13
2018-06-11T07:01:59.461Z,25.23
2018-06-11T07:04:26.265Z,25.22
2018-06-11T07:06:52.916Z,25.27
2018-06-11T07:09:19.784Z,25.23
2018-06-11T07:11:46.679Z,25.22
2018-06-11T07:14:13.305Z,25.19
2018-06-11T07:16:39.970Z,25.21
2018-06-11T07:19:06.703Z,25.32
2018-06-11T07:21:33.467Z,25.24
2018-06-11T07:24:00.110Z,25.20
2018-06-11T07:26:26.763Z,25.34
2018-06-11T07:28:53.418Z,25.26
2018-06-11T07:31:20.161Z,25.23
2018-06-11T07:33:46.905Z,25.23
2018-06-11T07:36:13.612Z,25.33
2018-06-11T07:38:40.390Z,25.24
2018-06-11T07:41:07.117Z,25.23
2018-06-11T07:43:33.787Z,25.26
2018-06-11T07:46:00.423Z,25.35
2018-06-11T07:48:27.083Z,25.26
2018-06-11T07:50:53.812Z,25.21
2018-06-11T07:53:20.457Z,25.23
2018-06-11T07:55:47.116Z,25.32
2018-06-11T07:58:13.790Z,25.19
2018-06-11T08:00:40.629Z,25.17
2018-06-11T08:03:07.254Z,25.14
2018-06-11T08:05:33.928Z,25.17
2018-06-11T08:08:00.584Z,25.18
2018-06-11T08:10:27.233Z,25.30
2018-06-11T08:12:53.932Z,25.30
2018-06-11T08:15:20.613Z,25.38
2018-06-11T08:17:47.237Z,25.43
2018-06-11T08:20:13.920Z,25.53
2018-06-11T08:22:40.592Z,25.55
2018-06-11T08:25:07.257Z,25.57
2018-06-11T08:27:34.000Z,25.66
2018-06-11T08:30:00.748Z,25.66
2018-06-11T08:32:27.386Z,25.55
2018-06-11T08:34:56.119Z,25.29
2018-06-11T08:37:22.834Z,25.15
2018-06-11T08:39:49.461Z,25.37
2018-06-11T08:42:16.116Z,25.39
2018-06-11T08:44:42.893Z,25.42
2018-06-11T08:47:09.562Z,25.56
2018-06-11T08:49:36.219Z,25.48
2018-06-11T08:52:02.890Z,25.59
2018-06-11T08:54:29.628Z,25.47
2018-06-11T08:56:56.264Z,25.48
2018-06-11T08:59:23.012Z,25.36
2018-06-11T09:01:49.669Z,25.36
2018-06-11T09:04:16.335Z,25.34
2018-06-11T09:06:42.973Z,25.45
2018-06-11T09:09:09.620Z,25.62
2018-06-11T09:11:36.356Z,25.72
2018-06-11T09:14:02.965Z,25.67
2018-06-11T09:16:29.661Z,25.52
2018-06-11T09:18:56.279Z,25.52
2018-06-11T09:21:22.960Z,25.62
2018-06-11T09:23:49.642Z,25.43
2018-06-11T09:26:16.268Z,25.35
2018-06-11T09:28:42.919Z,25.30
2018-06-11T09:31:09.584Z,25.35
2018-06-11T09:33:36.328Z,25.56
2018-06-11T09:36:02.959Z,25.57
2018-06-11T09:38:29.679Z,25.38
2018-06-11T09:40:56.642Z,25.55
2018-06-11T09:43:23.365Z,25.48
2018-06-11T09:45:49.982Z,25.61
2018-06-11T09:48:16.639Z,25.36
2018-06-11T09:50:43.350Z,25.20
2018-06-11T09:53:10.082Z,25.11
2018-06-11T09:55:36.782Z,25.03
2018-06-11T09:58:05.506Z,25.10
2018-06-11T10:00:32.146Z,25.14
2018-06-11T10:02:58.824Z,25.17
2018-06-11T10:05:25.484Z,25.34
2018-06-11T10:07:52.127Z,25.41
2018-06-11T10:10:18.792Z,25.55
2018-06-11T10:12:45.482Z,25.49
2018-06-11T10:15:12.104Z,25.55
2018-06-11T10:17:38.767Z,25.26
2018-06-11T10:20:05.450Z,25.30
2018-06-11T10:22:32.143Z,25.37
2018-06-11T10:24:58.787Z,25.44
2018-06-11T10:27:26.720Z,25.53
2018-06-11T10:29:52.155Z,25.46
2018-06-11T10:32:18.998Z,25.41
2018-06-11T10:34:45.626Z,25.26
2018-06-11T10:37:12.299Z,25.28
2018-06-11T10:39:39.000Z,25.31
2018-06-11T10:42:05.752Z,25.24
2018-06-11T10:44:32.531Z,25.38
2018-06-11T10:46:59.318Z,25.38
2018-06-11T10:49:26.007Z,25.53
2018-06-11T10:51:52.640Z,25.47
2018-06-11T10:54:19.486Z,25.57
2018-06-11T10:56:46.183Z,25.41
2018-06-11T10:59:12.917Z,25.46
2018-06-11T11:01:39.572Z,25.58
2018-06-11T11:04:06.268Z,25.66
2018-06-11T11:06:33.086Z,25.56
2018-06-11T11:08:59.803Z,25.41
2018-06-11T11:11:26.467Z,25.32
2018-06-11T11:13:53.124Z,25.33
2018-06-11T11:16:19.812Z,25.39
2018-06-11T11:18:46.450Z,25.37
2018-06-11T11:21:13.263Z,25.37
2018-06-11T11:23:39.879Z,25.36
2018-06-11T11:26:06.628Z,25.30
2018-06-11T11:28:33.297Z,25.03
2018-06-11T11:30:59.979Z,24.99
2018-06-11T11:33:26.682Z,25.37
2018-06-11T11:35:53.318Z,25.36
2018-06-11T11:38:19.993Z,25.58
2018-06-11T11:40:46.623Z,25.57
2018-06-11T11:43:13.465Z,25.63
2018-06-11T11:45:40.165Z,25.47
2018-06-11T11:48:06.844Z,25.43
2018-06-11T11:50:33.562Z,25.32
2018-06-11T11:53:00.300Z,25.53
2018-06-11T11:55:26.925Z,25.73
2018-06-11T11:57:53.605Z,25.73
2018-06-11T12:00:20.303Z,25.64
2018-06-11T12:02:46.998Z,25.45
2018-06-11T12:05:13.614Z,25.57
2018-06-11T12:07:40.332Z,25.40
2018-06-11T12:10:06.993Z,25.59
2018-06-11T12:12:33.603Z,25.39
2018-06-11T12:15:00.271Z,25.42
2018-06-11T12:17:26.935Z,25.41
2018-06-11T12:19:53.615Z,25.43
2018-06-11T12:22:20.289Z,25.44
2018-06-11T12:24:46.932Z,25.43
2018-06-11T12:27:13.583Z,25.43
2018-06-11T12:29:40.246Z,25.47
2018-06-11T12:32:06.918Z,25.48
2018-06-11T12:34:33.609Z,25.47
2018-06-11T12:37:00.294Z,25.46
2018-06-11T12:39:27.053Z,25.48
2018-06-11T12:41:53.786Z,25.42
2018-06-11T12:44:20.454Z,25.41
2018-06-11T12:46:47.114Z,25.49
2018-06-11T12:49:13.778Z,25.49
2018-06-11T12:51:40.547Z,25.63
2018-06-11T12:54:07.216Z,25.52
2018-06-11T12:56:33.926Z,25.46
2018-06-11T12:59:00.577Z,25.40
2018-06-11T13:01:27.289Z,25.42
2018-06-11T13:03:53.937Z,25.51
2018-06-11T13:06:21.563Z,25.48
2018-06-11T13:08:48.301Z,25.56
2018-06-11T13:11:15.019Z,25.59
2018-06-11T13:13:41.678Z,25.65
2018-06-11T13:16:08.298Z,25.64
2018-06-11T13:18:34.996Z,25.64
2018-06-11T13:21:01.673Z,25.82
2018-06-11T13:23:28.507Z,25.70
2018-06-11T13:25:55.242Z,25.51
2018-06-11T13:28:21.869Z,25.56
2018-06-11T13:30:48.706Z,25.63
2018-06-11T13:33:15.395Z,25.59
2018-06-11T13:35:42.098Z,25.55
2018-06-11T13:38:08.775Z,25.65
2018-06-11T13:40:35.454Z,25.57
2018-06-11T13:43:02.796Z,25.61
2018-06-11T13:45:29.477Z,25.48
2018-06-11T13:47:56.177Z,25.54
2018-06-11T13:50:22.838Z,25.53
2018-06-11T13:52:49.497Z,25.53
2018-06-11T13:55:16.200Z,25.72
2018-06-11T13:57:42.887Z,25.63
2018-06-11T14:00:09.507Z,25.56
2018-06-11T14:02:36.203Z,25.49
2018-06-11T14:05:03.313Z,25.52
2018-06-11T14:07:29.924Z,25.58
2018-06-11T14:09:56.572Z,25.53
2018-06-11T14:12:23.290Z,25.63
2018-06-11T14:14:50.019Z,25.49
2018-06-11T14:17:16.629Z,25.53
2018-06-11T14:19:43.288Z,25.50
2018-06-11T14:22:09.991Z,25.47
2018-06-11T14:24:36.666Z,25.49
2018-06-11T14:27:03.324Z,25.60
2018-06-11T14:29:29.979Z,25.54
2018-06-11T14:31:56.682Z,25.53
2018-06-11T14:34:23.321Z,25.41
2018-06-11T14:36:50.013Z,25.56
2018-06-11T14:39:16.754Z,25.55
2018-06-11T14:41:43.411Z,25.49
2018-06-11T14:44:10.088Z,25.46
2018-06-11T14:46:36.747Z,25.39
2018-06-11T14:49:03.394Z,25.40
2018-06-11T14:51:30.086Z,25.30
2018-06-11T14:53:56.749Z,25.36
2018-06-11T14:56:23.398Z,25.44
2018-06-11T14:58:50.129Z,25.49
2018-06-11T15:01:16.789Z,25.61
2018-06-11T15:03:43.419Z,25.63
2018-06-11T15:06:10.125Z,25.66
2018-06-11T15:08:36.791Z,25.79
2018-06-11T15:11:03.546Z,25.84
2018-06-11T15:13:30.159Z,25.76
2018-06-11T15:15:56.815Z,25.63
2018-06-11T15:18:25.479Z,25.58
2018-06-11T15:20:52.148Z,25.55
2018-06-11T15:23:18.809Z,25.51
2018-06-11T15:25:45.510Z,25.59
2018-06-11T15:28:12.179Z,25.67
2018-06-11T15:30:38.843Z,25.68
2018-06-11T15:33:05.548Z,25.74
2018-06-11T15:35:32.211Z,25.77
2018-06-11T15:37:58.911Z,25.77
2018-06-11T15:40:25.538Z,25.77
2018-06-11T15:42:52.232Z,25.71
2018-06-11T15:45:18.973Z,25.73
2018-06-11T15:47:45.610Z,25.69
2018-06-11T15:50:12.453Z,25.61
2018-06-11T15:52:39.023Z,25.66
2018-06-11T15:55:05.752Z,25.61
2018-06-11T15:57:32.394Z,25.52
2018-06-11T15:59:59.082Z,25.40
2018-06-11T16:02:25.720Z,25.49
2018-06-11T16:04:52.376Z,25.62
2018-06-11T16:07:19.076Z,25.59
2018-06-11T16:09:45.733Z,25.60
2018-06-11T16:12:13.671Z,25.66
2018-06-11T16:14:39.078Z,25.61
2018-06-11T16:17:05.737Z,25.61
2018-06-11T16:19:32.407Z,25.57
2018-06-11T16:21:59.104Z,25.60
2018-06-11T16:24:25.757Z,25.59
2018-06-11T16:26:53.823Z,25.54
2018-06-11T16:29:19.140Z,25.61
2018-06-11T16:31:45.844Z,25.63
2018-06-11T16:34:12.490Z,25.55
2018-06-11T16:36:39.143Z,25.59
2018-06-11T16:39:05.832Z,25.57
2018-06-11T16:41:32.528Z,25.51
2018-06-11T16:43:59.212Z,25.55
2018-06-11T16:46:25.871Z,25.58
2018-06-11T16:48:52.569Z,25.58
2018-06-11T16:51:19.228Z,25.52
2018-06-11T16:53:45.883Z,25.55
2018-06-11T16:56:12.543Z,25.49
2018-06-11T16:58:39.203Z,25.45
2018-06-11T17:01:05.939Z,25.52
2018-06-11T17:03:32.630Z,25.47
2018-06-11T17:05:59.237Z,25.47
2018-06-11T17:08:25.940Z,25.48
2018-06-11T17:10:52.628Z,25.44
2018-06-11T17:13:19.246Z,25.46
2018-06-11T17:15:45.989Z,25.46
2018-06-11T17:18:12.647Z,25.40
2018-06-11T17:20:39.299Z,25.38
2018-06-11T17:23:05.939Z,25.37
2018-06-11T17:25:32.683Z,25.40
2018-06-11T17:27:59.287Z,25.36
2018-06-11T17:30:25.947Z,25.31
2018-06-11T17:32:52.612Z,25.33
2018-06-11T17:35:19.294Z,25.33
2018-06-11T17:37:45.966Z,25.28
2018-06-11T17:40:12.646Z,25.33
2018-06-11T17:42:39.299Z,25.31
2018-06-11T17:45:06.016Z,25.26
2018-06-11T17:47:32.672Z,25.20
2018-06-11T17:49:59.325Z,25.24
2018-06-11T17:52:26.011Z,25.22
2018-06-11T17:54:52.673Z,25.16
2018-06-11T17:57:19.419Z,25.16
2018-06-11T17:59:46.007Z,25.20
2018-06-11T18:02:12.664Z,25.17
2018-06-11T18:04:39.368Z,25.14
2018-06-11T18:07:06.008Z,25.13
2018-06-11T18:09:32.664Z,25.20
2018-06-11T18:11:59.356Z,25.33
2018-06-11T18:14:26.013Z,25.44
2018-06-11T18:16:52.702Z,25.29
2018-06-11T18:19:19.323Z,25.30
2018-06-11T18:21:46.028Z,25.20
2018-06-11T18:24:12.702Z,25.12
2018-06-11T18:26:39.394Z,25.12
2018-06-11T18:29:06.078Z,25.14
2018-06-11T18:31:32.686Z,25.05
2018-06-11T18:33:59.372Z,24.98
2018-06-11T18:36:26.040Z,25.05
2018-06-11T18:38:52.700Z,25.05
2018-06-11T18:41:19.351Z,24.98
2018-06-11T18:43:46.042Z,24.92
2018-06-11T18:46:12.742Z,24.97
2018-06-11T18:48:39.379Z,24.89
2018-06-11T18:51:06.034Z,24.91
2018-06-11T18:53:32.702Z,24.96
2018-06-11T18:55:59.419Z,25.15
2018-06-11T18:58:26.054Z,25.17
2018-06-11T19:00:52.767Z,25.20
2018-06-11T19:03:19.453Z,25.16
2018-06-11T19:05:46.157Z,24.98
2018-06-11T19:08:12.813Z,24.87
2018-06-11T19:10:39.456Z,24.80
2018-06-11T19:13:06.184Z,24.83
2018-06-11T19:15:32.868Z,24.83
2018-06-11T19:17:59.484Z,24.81
2018-06-11T19:20:26.183Z,24.78
2018-06-11T19:22:52.890Z,24.88
2018-06-11T19:25:19.587Z,25.01
2018-06-11T19:27:46.199Z,25.05
2018-06-11T19:30:12.906Z,25.10
2018-06-11T19:32:39.614Z,25.05
2018-06-11T19:35:06.314Z,24.88
2018-06-11T19:37:32.965Z,24.73
2018-06-11T19:39:59.615Z,24.68
2018-06-11T19:42:26.330Z,24.60
2018-06-11T19:44:53.017Z,24.62
2018-06-11T19:47:19.636Z,24.67
2018-06-11T19:49:46.344Z,24.31
2018-06-11T19:52:13.111Z,24.04
2018-06-11T19:54:39.800Z,24.08
2018-06-11T19:57:06.453Z,24.33
2018-06-11T19:59:33.079Z,24.52
2018-06-11T20:01:59.805Z,24.64
2018-06-11T20:04:26.464Z,24.76
2018-06-11T20:06:53.189Z,24.82
2018-06-11T20:09:19.915Z,24.87
2018-06-11T20:11:46.608Z,24.91
2018-06-11T20:14:13.249Z,24.90
2018-06-11T20:16:39.884Z,24.99
2018-06-11T20:19:06.549Z,25.01
2018-06-11T20:21:36.304Z,25.06
2018-06-11T20:24:02.977Z,24.87
2018-06-11T20:26:29.697Z,24.68
2018-06-11T20:28:56.368Z,24.57
2018-06-11T20:31:23.132Z,24.48
2018-06-11T20:33:49.769Z,24.37
2018-06-11T20:36:16.420Z,24.32
2018-06-11T20:38:43.120Z,24.34
2018-06-11T20:41:09.811Z,24.32
2018-06-11T20:43:36.491Z,24.17
2018-06-11T20:46:03.143Z,24.23
2018-06-11T20:48:29.800Z,24.15
2018-06-11T20:50:56.473Z,24.18
2018-06-11T20:53:23.098Z,24.17
2018-06-11T20:55:49.744Z,24.11
2018-06-11T20:58:16.452Z,24.03
2018-06-11T21:00:43.124Z,24.03
2018-06-11T21:03:09.852Z,24.10
2018-06-11T21:05:36.528Z,23.94
2018-06-11T21:08:03.221Z,23.93
2018-06-11T21:10:29.955Z,23.87
2018-06-11T21:12:56.659Z,23.93
2018-06-11T21:15:23.338Z,23.91
2018-06-11T21:17:50.003Z,23.85
2018-06-11T21:20:16.733Z,23.81
2018-06-11T21:22:43.359Z,23.78
2018-06-11T21:25:10.069Z,23.83
2018-06-11T21:27:36.743Z,23.77
2018-06-11T21:30:03.440Z,23.76
2018-06-11T21:32:30.097Z,23.75
2018-06-11T21:34:56.854Z,23.71
2018-06-11T21:37:23.529Z,23.80
2018-06-11T21:39:50.181Z,23.72
2018-06-11T21:42:16.862Z,23.67
2018-06-11T21:44:43.558Z,23.64
2018-06-11T21:47:10.240Z,23.66
2018-06-11T21:49:36.886Z,23.68
2018-06-11T21:52:03.575Z,23.65
2018-06-11T21:54:30.237Z,23.59
2018-06-11T21:56:56.894Z,23.54
2018-06-11T21:59:23.566Z,23.49
2018-06-11T22:01:50.294Z,23.58
2018-06-11T22:04:16.957Z,23.56
2018-06-11T22:06:43.573Z,23.50
2018-06-11T22:09:10.282Z,23.57
2018-06-11T22:11:36.942Z,23.49
2018-06-11T22:14:03.637Z,23.53
2018-06-11T22:16:30.352Z,23.48
2018-06-11T22:18:57.055Z,23.44
2018-06-11T22:21:23.797Z,23.42
2018-06-11T22:23:50.462Z,23.38
2018-06-11T22:26:17.124Z,23.36
2018-06-11T22:28:43.749Z,23.43
2018-06-11T22:31:10.484Z,23.41
2018-06-11T22:33:37.196Z,23.31
2018-06-11T22:36:03.917Z,23.27
2018-06-11T22:38:30.681Z,23.27
2018-06-11T22:40:57.304Z,23.35
2018-06-11T22:43:23.957Z,23.30
2018-06-11T22:45:50.678Z,23.49
2018-06-11T22:48:17.408Z,23.62
2018-06-11T22:50:44.031Z,23.72
2018-06-11T22:53:10.742Z,23.85
2018-06-11T22:55:37.437Z,23.85
2018-06-11T22:58:04.157Z,23.97
2018-06-11T23:00:30.814Z,23.89
2018-06-11T23:02:57.503Z,23.90
2018-06-11T23:05:24.131Z,23.94
2018-06-11T23:07:50.837Z,24.04
2018-06-11T23:10:17.571Z,24.10
2018-06-11T23:12:44.203Z,24.11
2018-06-11T23:15:10.935Z,24.14
2018-06-11T23:17:37.557Z,24.20
2018-06-11T23:20:04.265Z,24.21
2018-06-11T23:22:30.920Z,24.26
2018-06-11T23:24:57.635Z,24.20
2018-06-11T23:27:24.291Z,24.14
2018-06-11T23:29:50.992Z,24.17
2018-06-11T23:32:17.650Z,24.23
2018-06-11T23:34:44.451Z,24.27
2018-06-11T23:37:11.094Z,24.31
2018-06-11T23:39:37.862Z,24.28
2018-06-11T23:42:04.473Z,24.24
2018-06-11T23:44:31.122Z,24.32
2018-06-11T23:46:57.825Z,24.31
2018-06-11T23:49:24.432Z,24.28
2018-06-11T23:51:51.128Z,24.31
2018-06-11T23:54:17.807Z,24.33
2018-06-11T23:56:44.447Z,24.22
2018-06-11T23:59:12.195Z,24.25
